AWC78E LIRF-EFHK
Flight info
| Callsign | AWC78E |
|---|---|
| Flight time | N/A |
| Altitude | 38000 |
| Route | SOVAN DCT AMTEL DCT OBEDI/N0457F370 DCT RASAN/N0460F390 DCT PENOR DCT ALAMI DCT OKEVU DCT EVADI Y370 DIVAM |
| Aircraft | A21N/M-SDE2E3FGHIRWXY/LB1 |
Departure
| Time | N/A |
|---|---|
| Airport | Rome–Fiumicino Leonardo da Vinci International Airport (LIRF) |
Arrival
| Time | 2026-05-06 20:07 |
|---|---|
| Airport | Helsinki Vantaa Airport (EFHK) |
| Time | Latitude | Longitude | Altitude | Speed | Heading |
|---|---|---|---|---|---|
| 2026-05-06 17:26 | 42.76020 | 11.78339 | 29566 ft | 446 kts | 338° |
| 2026-05-06 17:26 | 42.79022 | 11.77193 | 29948 ft | 449 kts | 338° |
| 2026-05-06 17:26 | 42.82047 | 11.76048 | 30318 ft | 452 kts | 338° |
| 2026-05-06 17:26 | 42.85086 | 11.74899 | 30680 ft | 455 kts | 338° |
| 2026-05-06 17:27 | 42.88102 | 11.73768 | 31033 ft | 457 kts | 338° |
| 2026-05-06 17:27 | 42.91171 | 11.72614 | 31402 ft | 459 kts | 338° |
| 2026-05-06 17:27 | 42.94256 | 11.71450 | 31761 ft | 461 kts | 337° |
| 2026-05-06 17:27 | 42.97350 | 11.70267 | 32096 ft | 463 kts | 338° |
| 2026-05-06 17:28 | 43.00456 | 11.69077 | 32431 ft | 465 kts | 338° |
| 2026-05-06 17:28 | 43.03583 | 11.67893 | 32743 ft | 467 kts | 338° |
| 2026-05-06 17:28 | 43.06718 | 11.66706 | 33056 ft | 468 kts | 338° |
| 2026-05-06 17:28 | 43.09860 | 11.65505 | 33406 ft | 468 kts | 337° |
| 2026-05-06 17:29 | 43.12951 | 11.64320 | 33766 ft | 468 kts | 337° |
| 2026-05-06 17:29 | 43.16085 | 11.63121 | 34136 ft | 467 kts | 337° |
| 2026-05-06 17:29 | 43.19239 | 11.62020 | 34470 ft | 471 kts | 342° |
| 2026-05-06 17:29 | 43.22535 | 11.61623 | 34792 ft | 481 kts | 356° |
| 2026-05-06 17:30 | 43.25877 | 11.62269 | 35102 ft | 490 kts | 9° |
| 2026-05-06 17:30 | 43.29159 | 11.63545 | 35415 ft | 491 kts | 12° |
| 2026-05-06 17:30 | 43.32428 | 11.64901 | 35704 ft | 490 kts | 12° |
| 2026-05-06 17:30 | 43.35697 | 11.66222 | 35987 ft | 489 kts | 12° |
| 2026-05-06 17:31 | 43.38924 | 11.67492 | 36219 ft | 489 kts | 12° |
| 2026-05-06 17:31 | 43.42192 | 11.68769 | 36462 ft | 488 kts | 12° |
| 2026-05-06 17:31 | 43.45452 | 11.70044 | 36724 ft | 488 kts | 12° |
| 2026-05-06 17:31 | 43.48714 | 11.71328 | 37001 ft | 486 kts | 12° |
| 2026-05-06 17:32 | 43.51946 | 11.72605 | 37311 ft | 483 kts | 12° |
| 2026-05-06 17:32 | 43.55165 | 11.73852 | 37667 ft | 479 kts | 11° |
| 2026-05-06 17:32 | 43.58369 | 11.75089 | 37903 ft | 478 kts | 12° |
| 2026-05-06 17:33 | 43.64766 | 11.77605 | 37940 ft | 478 kts | 12° |
| 2026-05-06 17:33 | 43.71115 | 11.80110 | 37916 ft | 478 kts | 12° |
| 2026-05-06 17:34 | 43.77506 | 11.82642 | 37905 ft | 478 kts | 12° |
| 2026-05-06 17:34 | 43.83907 | 11.85176 | 37901 ft | 478 kts | 12° |
| 2026-05-06 17:35 | 43.90303 | 11.87721 | 37889 ft | 478 kts | 12° |
| 2026-05-06 17:35 | 43.96646 | 11.90254 | 37888 ft | 478 kts | 12° |
| 2026-05-06 17:36 | 44.06232 | 11.94097 | 37886 ft | 478 kts | 12° |
| 2026-05-06 17:36 | 44.12620 | 11.96652 | 37878 ft | 478 kts | 12° |
| 2026-05-06 17:37 | 44.19012 | 11.99226 | 37878 ft | 478 kts | 12° |
| 2026-05-06 17:37 | 44.25364 | 12.01778 | 37884 ft | 478 kts | 12° |
| 2026-05-06 17:38 | 44.31750 | 12.04359 | 37882 ft | 478 kts | 12° |
| 2026-05-06 17:38 | 44.38133 | 12.06940 | 37881 ft | 477 kts | 12° |
| 2026-05-06 17:39 | 44.44507 | 12.09501 | 37877 ft | 477 kts | 12° |
| 2026-05-06 17:39 | 44.50867 | 12.12100 | 37878 ft | 476 kts | 12° |
| 2026-05-06 17:40 | 44.57204 | 12.14653 | 37884 ft | 477 kts | 12° |
| 2026-05-06 17:40 | 44.63571 | 12.17256 | 37884 ft | 477 kts | 12° |
| 2026-05-06 17:41 | 44.69931 | 12.19862 | 37883 ft | 476 kts | 12° |
| 2026-05-06 17:41 | 44.76244 | 12.22436 | 37882 ft | 476 kts | 12° |
| 2026-05-06 17:42 | 44.82593 | 12.25048 | 37881 ft | 475 kts | 12° |
| 2026-05-06 17:42 | 44.88926 | 12.27663 | 37883 ft | 475 kts | 12° |
| 2026-05-06 17:43 | 44.94188 | 12.29845 | 37880 ft | 474 kts | 12° |
| 2026-05-06 17:43 | 45.00521 | 12.32470 | 37879 ft | 474 kts | 12° |
| 2026-05-06 17:44 | 45.07873 | 12.35521 | 37880 ft | 474 kts | 13° |
| 2026-05-06 17:44 | 45.13125 | 12.37701 | 37885 ft | 473 kts | 12° |
| 2026-05-06 17:45 | 45.19446 | 12.40328 | 37877 ft | 474 kts | 13° |
| 2026-05-06 17:45 | 45.25757 | 12.42977 | 37875 ft | 473 kts | 13° |
| 2026-05-06 17:46 | 45.33083 | 12.46112 | 37877 ft | 473 kts | 13° |
| 2026-05-06 17:46 | 45.38341 | 12.48288 | 37879 ft | 473 kts | 12° |
| 2026-05-06 17:47 | 45.44658 | 12.50900 | 37884 ft | 473 kts | 13° |
| 2026-05-06 17:47 | 45.50956 | 12.53630 | 37884 ft | 472 kts | 13° |
| 2026-05-06 17:48 | 45.57259 | 12.56268 | 37881 ft | 472 kts | 12° |
| 2026-05-06 17:48 | 45.63522 | 12.58866 | 37883 ft | 472 kts | 13° |
| 2026-05-06 17:49 | 45.69818 | 12.61520 | 37889 ft | 472 kts | 13° |
| 2026-05-06 17:49 | 45.76116 | 12.64193 | 37895 ft | 472 kts | 13° |
| 2026-05-06 17:50 | 45.82413 | 12.66876 | 37892 ft | 472 kts | 13° |
| 2026-05-06 17:50 | 45.88703 | 12.69571 | 37891 ft | 472 kts | 13° |
| 2026-05-06 17:51 | 45.94946 | 12.72249 | 37897 ft | 471 kts | 13° |
| 2026-05-06 17:51 | 46.01228 | 12.74948 | 37903 ft | 472 kts | 13° |
| 2026-05-06 17:52 | 46.07526 | 12.77651 | 37901 ft | 473 kts | 13° |
| 2026-05-06 17:52 | 46.13826 | 12.80381 | 37894 ft | 473 kts | 13° |
| 2026-05-06 17:53 | 46.20084 | 12.83087 | 37888 ft | 473 kts | 13° |
| 2026-05-06 17:53 | 46.26387 | 12.85821 | 37891 ft | 473 kts | 13° |
| 2026-05-06 17:54 | 46.32686 | 12.88550 | 37884 ft | 473 kts | 13° |
| 2026-05-06 17:54 | 46.38981 | 12.91273 | 37888 ft | 471 kts | 13° |
| 2026-05-06 17:55 | 46.45219 | 12.94008 | 37897 ft | 472 kts | 14° |
| 2026-05-06 17:55 | 46.51499 | 12.96756 | 37894 ft | 472 kts | 13° |
| 2026-05-06 17:56 | 46.57791 | 12.99518 | 37895 ft | 472 kts | 13° |
| 2026-05-06 17:56 | 46.64076 | 13.02280 | 37903 ft | 473 kts | 13° |
| 2026-05-06 17:57 | 46.70374 | 13.05051 | 37912 ft | 473 kts | 14° |
| 2026-05-06 17:57 | 46.76623 | 13.07826 | 37892 ft | 472 kts | 14° |
| 2026-05-06 17:58 | 46.82914 | 13.10621 | 37862 ft | 473 kts | 14° |
| 2026-05-06 17:58 | 46.89213 | 13.13412 | 37858 ft | 473 kts | 14° |
| 2026-05-06 17:59 | 46.95514 | 13.16217 | 37880 ft | 474 kts | 13° |
| 2026-05-06 17:59 | 47.01829 | 13.19028 | 37868 ft | 475 kts | 14° |
| 2026-05-06 18:00 | 47.08147 | 13.21854 | 37853 ft | 475 kts | 14° |
| 2026-05-06 18:00 | 47.14427 | 13.24675 | 37850 ft | 475 kts | 14° |
| 2026-05-06 18:01 | 47.20750 | 13.27507 | 37837 ft | 475 kts | 14° |
| 2026-05-06 18:01 | 47.27064 | 13.30380 | 37822 ft | 475 kts | 14° |
| 2026-05-06 18:02 | 47.33384 | 13.33269 | 37835 ft | 476 kts | 14° |
| 2026-05-06 18:02 | 47.39712 | 13.36124 | 37824 ft | 476 kts | 13° |
| 2026-05-06 18:03 | 47.46024 | 13.38919 | 37825 ft | 476 kts | 14° |
| 2026-05-06 18:03 | 47.52368 | 13.41787 | 37816 ft | 477 kts | 13° |
| 2026-05-06 18:04 | 47.58719 | 13.44607 | 37810 ft | 477 kts | 13° |
| 2026-05-06 18:04 | 47.65080 | 13.47438 | 37807 ft | 477 kts | 13° |
| 2026-05-06 18:05 | 47.71404 | 13.50253 | 37810 ft | 478 kts | 13° |
| 2026-05-06 18:05 | 47.77775 | 13.53149 | 37800 ft | 479 kts | 13° |
| 2026-05-06 18:06 | 47.84149 | 13.56025 | 37800 ft | 479 kts | 13° |
| 2026-05-06 18:06 | 47.90526 | 13.58928 | 37785 ft | 479 kts | 14° |
| 2026-05-06 18:07 | 47.96911 | 13.61797 | 37780 ft | 480 kts | 13° |
| 2026-05-06 18:07 | 48.03305 | 13.64699 | 37769 ft | 480 kts | 13° |
| 2026-05-06 18:08 | 48.09657 | 13.67578 | 37749 ft | 480 kts | 14° |
| 2026-05-06 18:08 | 48.12840 | 13.69066 | 37587 ft | 479 kts | 14° |
| 2026-05-06 18:08 | 48.16021 | 13.70535 | 37387 ft | 478 kts | 13° |
| 2026-05-06 18:09 | 48.19197 | 13.72006 | 37152 ft | 477 kts | 14° |
| 2026-05-06 18:09 | 48.22370 | 13.73484 | 36907 ft | 476 kts | 13° |
| 2026-05-06 18:09 | 48.25534 | 13.74924 | 36703 ft | 475 kts | 13° |
| 2026-05-06 18:09 | 48.28706 | 13.76355 | 36673 ft | 476 kts | 13° |
| 2026-05-06 18:10 | 48.35038 | 13.79305 | 36710 ft | 477 kts | 13° |
| 2026-05-06 18:10 | 48.41345 | 13.82181 | 36719 ft | 476 kts | 13° |
| 2026-05-06 18:11 | 48.47681 | 13.85122 | 36721 ft | 477 kts | 14° |
| 2026-05-06 18:11 | 48.54014 | 13.88127 | 36729 ft | 477 kts | 13° |
| 2026-05-06 18:12 | 48.60350 | 13.91063 | 36733 ft | 476 kts | 13° |
| 2026-05-06 18:12 | 48.66652 | 13.94007 | 36733 ft | 471 kts | 13° |
| 2026-05-06 18:13 | 48.72922 | 13.96918 | 36733 ft | 472 kts | 14° |
| 2026-05-06 18:13 | 48.79186 | 13.99893 | 36729 ft | 472 kts | 13° |
| 2026-05-06 18:14 | 48.85425 | 14.02729 | 36725 ft | 471 kts | 13° |
| 2026-05-06 18:14 | 48.91687 | 14.05671 | 36730 ft | 472 kts | 14° |
| 2026-05-06 18:15 | 48.97944 | 14.08636 | 36733 ft | 471 kts | 14° |
| 2026-05-06 18:15 | 49.04200 | 14.11611 | 36736 ft | 471 kts | 14° |
| 2026-05-06 18:16 | 49.10420 | 14.14560 | 36735 ft | 471 kts | 13° |
| 2026-05-06 18:16 | 49.16670 | 14.17560 | 36736 ft | 471 kts | 14° |
| 2026-05-06 18:17 | 49.22925 | 14.20552 | 36729 ft | 471 kts | 14° |
| 2026-05-06 18:17 | 49.29179 | 14.23577 | 36723 ft | 471 kts | 14° |
| 2026-05-06 18:18 | 49.35438 | 14.26577 | 36718 ft | 471 kts | 14° |
| 2026-05-06 18:18 | 49.41694 | 14.29588 | 36721 ft | 471 kts | 14° |
| 2026-05-06 18:19 | 49.47906 | 14.32593 | 36726 ft | 471 kts | 14° |
| 2026-05-06 18:19 | 49.54167 | 14.35632 | 36734 ft | 471 kts | 14° |
| 2026-05-06 18:20 | 49.60422 | 14.38658 | 36738 ft | 472 kts | 14° |
| 2026-05-06 18:20 | 49.66683 | 14.41723 | 36735 ft | 471 kts | 14° |
| 2026-05-06 18:21 | 49.72938 | 14.44782 | 36736 ft | 471 kts | 14° |
| 2026-05-06 18:21 | 49.79145 | 14.47844 | 36732 ft | 472 kts | 14° |
| 2026-05-06 18:22 | 49.85400 | 14.50903 | 36732 ft | 472 kts | 14° |
| 2026-05-06 18:22 | 49.91648 | 14.53975 | 36733 ft | 471 kts | 14° |
| 2026-05-06 18:23 | 49.97904 | 14.57070 | 36727 ft | 472 kts | 14° |
| 2026-05-06 18:23 | 50.04152 | 14.60170 | 36733 ft | 471 kts | 14° |
| 2026-05-06 18:24 | 50.10397 | 14.63251 | 36737 ft | 471 kts | 14° |
| 2026-05-06 18:24 | 50.16635 | 14.66356 | 36738 ft | 471 kts | 14° |
| 2026-05-06 18:25 | 50.22848 | 14.69462 | 36746 ft | 476 kts | 14° |
| 2026-05-06 18:25 | 50.29226 | 14.72696 | 36752 ft | 488 kts | 14° |
| 2026-05-06 18:26 | 50.35698 | 14.75964 | 36746 ft | 488 kts | 15° |
| 2026-05-06 18:26 | 50.42155 | 14.79248 | 36754 ft | 487 kts | 14° |
| 2026-05-06 18:27 | 50.48607 | 14.82544 | 36765 ft | 488 kts | 14° |
| 2026-05-06 18:27 | 50.55018 | 14.85817 | 36753 ft | 488 kts | 14° |
| 2026-05-06 18:28 | 50.61471 | 14.89083 | 36758 ft | 487 kts | 14° |
| 2026-05-06 18:28 | 50.67921 | 14.92357 | 36764 ft | 487 kts | 14° |
| 2026-05-06 18:29 | 50.74366 | 14.95677 | 36762 ft | 487 kts | 15° |
| 2026-05-06 18:29 | 50.80812 | 14.98975 | 36764 ft | 487 kts | 14° |
| 2026-05-06 18:30 | 50.87228 | 15.02242 | 36763 ft | 491 kts | 14° |
| 2026-05-06 18:30 | 50.93753 | 15.05522 | 36778 ft | 492 kts | 14° |
| 2026-05-06 18:31 | 51.00264 | 15.08865 | 36771 ft | 492 kts | 14° |
| 2026-05-06 18:31 | 51.06872 | 15.11629 | 36762 ft | 490 kts | 10° |
| 2026-05-06 18:32 | 51.13488 | 15.14303 | 36760 ft | 490 kts | 11° |
| 2026-05-06 18:32 | 51.20045 | 15.16961 | 36775 ft | 490 kts | 11° |
| 2026-05-06 18:33 | 51.26640 | 15.19664 | 36778 ft | 490 kts | 10° |
| 2026-05-06 18:33 | 51.33246 | 15.22305 | 36785 ft | 489 kts | 10° |
| 2026-05-06 18:34 | 51.39840 | 15.25020 | 36793 ft | 489 kts | 11° |
| 2026-05-06 18:34 | 51.46393 | 15.27657 | 36792 ft | 489 kts | 11° |
| 2026-05-06 18:35 | 51.52989 | 15.30361 | 36800 ft | 489 kts | 10° |
| 2026-05-06 18:35 | 51.59581 | 15.33092 | 36800 ft | 489 kts | 11° |
| 2026-05-06 18:36 | 51.66173 | 15.35826 | 36799 ft | 489 kts | 11° |
| 2026-05-06 18:36 | 51.72712 | 15.38527 | 36800 ft | 488 kts | 11° |
| 2026-05-06 18:37 | 51.79285 | 15.41258 | 36803 ft | 488 kts | 11° |
| 2026-05-06 18:37 | 51.85867 | 15.43987 | 36805 ft | 488 kts | 11° |
| 2026-05-06 18:38 | 51.92440 | 15.46701 | 36810 ft | 488 kts | 11° |
| 2026-05-06 18:38 | 51.99016 | 15.49441 | 36812 ft | 488 kts | 11° |
| 2026-05-06 18:39 | 52.05544 | 15.52182 | 36809 ft | 487 kts | 11° |
| 2026-05-06 18:40 | 52.15400 | 15.56334 | 36824 ft | 488 kts | 11° |
| 2026-05-06 18:40 | 52.21968 | 15.59133 | 36822 ft | 488 kts | 11° |
| 2026-05-06 18:41 | 52.28496 | 15.61830 | 36818 ft | 487 kts | 11° |
| 2026-05-06 18:41 | 52.35068 | 15.64612 | 36814 ft | 488 kts | 11° |
| 2026-05-06 18:42 | 52.41634 | 15.67386 | 36810 ft | 488 kts | 11° |
| 2026-05-06 18:42 | 52.48207 | 15.70180 | 36821 ft | 488 kts | 11° |
| 2026-05-06 18:43 | 52.54774 | 15.73000 | 36819 ft | 488 kts | 11° |
| 2026-05-06 18:43 | 52.61296 | 15.75840 | 36822 ft | 488 kts | 11° |
| 2026-05-06 18:44 | 52.67860 | 15.78692 | 36821 ft | 488 kts | 11° |
| 2026-05-06 18:44 | 52.74432 | 15.81521 | 36819 ft | 488 kts | 11° |
| 2026-05-06 18:45 | 52.81021 | 15.84333 | 36813 ft | 489 kts | 11° |
| 2026-05-06 18:45 | 52.87562 | 15.87157 | 36810 ft | 489 kts | 11° |
| 2026-05-06 18:46 | 52.94145 | 15.90020 | 36813 ft | 489 kts | 11° |
| 2026-05-06 18:46 | 53.00735 | 15.92901 | 36812 ft | 490 kts | 11° |
| 2026-05-06 18:47 | 53.07329 | 15.95801 | 36812 ft | 490 kts | 11° |
| 2026-05-06 18:47 | 53.13881 | 15.98679 | 36813 ft | 490 kts | 11° |
| 2026-05-06 18:48 | 53.20470 | 16.01606 | 36821 ft | 491 kts | 11° |
| 2026-05-06 18:48 | 53.27074 | 16.04551 | 36822 ft | 491 kts | 11° |
| 2026-05-06 18:49 | 53.33678 | 16.07492 | 36816 ft | 491 kts | 11° |
| 2026-05-06 18:49 | 53.40241 | 16.10419 | 36821 ft | 491 kts | 11° |
| 2026-05-06 18:50 | 53.46842 | 16.13365 | 36827 ft | 491 kts | 11° |
| 2026-05-06 18:50 | 53.53444 | 16.16310 | 36830 ft | 491 kts | 11° |
| 2026-05-06 18:51 | 53.60050 | 16.19276 | 36833 ft | 492 kts | 11° |
| 2026-05-06 18:51 | 53.66642 | 16.22256 | 36839 ft | 497 kts | 11° |
| 2026-05-06 18:52 | 53.73279 | 16.25271 | 36844 ft | 497 kts | 12° |
| 2026-05-06 18:52 | 53.79973 | 16.28321 | 36847 ft | 497 kts | 12° |
| 2026-05-06 18:53 | 53.86647 | 16.31371 | 36858 ft | 497 kts | 12° |
| 2026-05-06 18:53 | 53.93284 | 16.34411 | 36863 ft | 497 kts | 12° |
| 2026-05-06 18:54 | 53.99959 | 16.37475 | 36860 ft | 497 kts | 12° |
| 2026-05-06 18:54 | 54.06636 | 16.40542 | 36859 ft | 496 kts | 12° |
| 2026-05-06 18:55 | 54.13215 | 16.43585 | 36867 ft | 496 kts | 12° |
| 2026-05-06 18:55 | 54.19836 | 16.46686 | 36872 ft | 496 kts | 12° |
| 2026-05-06 18:56 | 54.26503 | 16.49761 | 36872 ft | 496 kts | 12° |
| 2026-05-06 18:56 | 54.33160 | 16.52868 | 36870 ft | 496 kts | 12° |
| 2026-05-06 18:57 | 54.39817 | 16.55990 | 36870 ft | 496 kts | 12° |
| 2026-05-06 18:57 | 54.46416 | 16.59098 | 36888 ft | 496 kts | 12° |
| 2026-05-06 18:58 | 54.53053 | 16.62218 | 36890 ft | 494 kts | 12° |
| 2026-05-06 18:58 | 54.59693 | 16.65368 | 36889 ft | 494 kts | 12° |
| 2026-05-06 18:59 | 54.66327 | 16.68520 | 36893 ft | 494 kts | 12° |
| 2026-05-06 18:59 | 54.72915 | 16.71661 | 36896 ft | 494 kts | 12° |
| 2026-05-06 19:00 | 54.79543 | 16.74828 | 36894 ft | 494 kts | 12° |
| 2026-05-06 19:00 | 54.86158 | 16.78008 | 36882 ft | 494 kts | 12° |
| 2026-05-06 19:01 | 54.92777 | 16.81198 | 36890 ft | 493 kts | 12° |
| 2026-05-06 19:01 | 54.99346 | 16.84370 | 36890 ft | 493 kts | 12° |
| 2026-05-06 19:02 | 55.05945 | 16.87613 | 36890 ft | 493 kts | 13° |
| 2026-05-06 19:02 | 55.12546 | 16.90867 | 36899 ft | 493 kts | 13° |
| 2026-05-06 19:03 | 55.19150 | 16.94063 | 36930 ft | 492 kts | 12° |
| 2026-05-06 19:03 | 55.25706 | 16.97236 | 36931 ft | 492 kts | 13° |
| 2026-05-06 19:04 | 55.32290 | 17.00509 | 36929 ft | 491 kts | 13° |
| 2026-05-06 19:04 | 55.38877 | 17.03727 | 36940 ft | 492 kts | 13° |
| 2026-05-06 19:05 | 55.45460 | 17.06968 | 36941 ft | 491 kts | 13° |
| 2026-05-06 19:05 | 55.52039 | 17.10265 | 36941 ft | 491 kts | 13° |
| 2026-05-06 19:06 | 55.58611 | 17.13556 | 36944 ft | 491 kts | 13° |
| 2026-05-06 19:06 | 55.65055 | 17.17332 | 36944 ft | 495 kts | 24° |
| 2026-05-06 19:07 | 55.71099 | 17.23262 | 36951 ft | 496 kts | 27° |
| 2026-05-06 19:07 | 55.77113 | 17.29278 | 36950 ft | 496 kts | 27° |
| 2026-05-06 19:08 | 55.83126 | 17.35281 | 36959 ft | 495 kts | 27° |
| 2026-05-06 19:08 | 55.89136 | 17.41293 | 36959 ft | 496 kts | 27° |
| 2026-05-06 19:09 | 55.95102 | 17.47289 | 36961 ft | 496 kts | 28° |
| 2026-05-06 19:09 | 56.01105 | 17.53350 | 36960 ft | 496 kts | 28° |
| 2026-05-06 19:10 | 56.07101 | 17.59430 | 36971 ft | 495 kts | 28° |
| 2026-05-06 19:10 | 56.13100 | 17.65520 | 36970 ft | 496 kts | 28° |
| 2026-05-06 19:11 | 56.19099 | 17.71636 | 36969 ft | 495 kts | 28° |
| 2026-05-06 19:11 | 56.25041 | 17.77744 | 36969 ft | 496 kts | 28° |
| 2026-05-06 19:12 | 56.31035 | 17.83885 | 36969 ft | 495 kts | 28° |
| 2026-05-06 19:12 | 56.37063 | 17.90091 | 36969 ft | 495 kts | 28° |
| 2026-05-06 19:13 | 56.43005 | 17.96235 | 36970 ft | 496 kts | 28° |
| 2026-05-06 19:13 | 56.48941 | 18.02416 | 36972 ft | 496 kts | 28° |
| 2026-05-06 19:14 | 56.54919 | 18.08650 | 36981 ft | 496 kts | 28° |
| 2026-05-06 19:14 | 56.60904 | 18.14909 | 36978 ft | 497 kts | 28° |
| 2026-05-06 19:15 | 56.65873 | 18.20132 | 36977 ft | 496 kts | 28° |
| 2026-05-06 19:15 | 56.72826 | 18.27423 | 36983 ft | 496 kts | 28° |
| 2026-05-06 19:16 | 56.78790 | 18.33729 | 36980 ft | 496 kts | 28° |
| 2026-05-06 19:16 | 56.84767 | 18.40075 | 36980 ft | 497 kts | 28° |
| 2026-05-06 19:17 | 56.90747 | 18.46445 | 36978 ft | 497 kts | 28° |
| 2026-05-06 19:17 | 56.96683 | 18.52795 | 36982 ft | 498 kts | 29° |
| 2026-05-06 19:18 | 57.02662 | 18.59225 | 36980 ft | 498 kts | 28° |
| 2026-05-06 19:18 | 57.08646 | 18.65663 | 36977 ft | 498 kts | 28° |
| 2026-05-06 19:19 | 57.14619 | 18.72123 | 36982 ft | 498 kts | 29° |
| 2026-05-06 19:19 | 57.20588 | 18.78604 | 36987 ft | 498 kts | 29° |
| 2026-05-06 19:20 | 57.26517 | 18.85070 | 36990 ft | 499 kts | 29° |
| 2026-05-06 19:20 | 57.32488 | 18.91601 | 36990 ft | 499 kts | 29° |
| 2026-05-06 19:21 | 57.38460 | 18.98160 | 36990 ft | 498 kts | 29° |
| 2026-05-06 19:21 | 57.44376 | 19.04683 | 36990 ft | 498 kts | 29° |
| 2026-05-06 19:22 | 57.50322 | 19.11274 | 36991 ft | 498 kts | 30° |
| 2026-05-06 19:22 | 57.56276 | 19.17880 | 36990 ft | 498 kts | 29° |
| 2026-05-06 19:23 | 57.62226 | 19.24509 | 36990 ft | 499 kts | 29° |
| 2026-05-06 19:23 | 57.68180 | 19.31175 | 36991 ft | 499 kts | 29° |
| 2026-05-06 19:24 | 57.74087 | 19.37806 | 36990 ft | 499 kts | 30° |
| 2026-05-06 19:24 | 57.80028 | 19.44522 | 36990 ft | 498 kts | 30° |
| 2026-05-06 19:25 | 57.85950 | 19.51237 | 36990 ft | 498 kts | 30° |
| 2026-05-06 19:25 | 57.91885 | 19.57969 | 36989 ft | 498 kts | 30° |
| 2026-05-06 19:26 | 57.97778 | 19.64699 | 36990 ft | 499 kts | 30° |
| 2026-05-06 19:26 | 58.03708 | 19.71495 | 36998 ft | 499 kts | 30° |
| 2026-05-06 19:27 | 58.09637 | 19.78315 | 37000 ft | 499 kts | 30° |
| 2026-05-06 19:27 | 58.15561 | 19.85149 | 37000 ft | 499 kts | 30° |
| 2026-05-06 19:28 | 58.21440 | 19.91967 | 36997 ft | 499 kts | 30° |
| 2026-05-06 19:28 | 58.27349 | 19.98854 | 36993 ft | 499 kts | 30° |
| 2026-05-06 19:29 | 58.33259 | 20.05767 | 36999 ft | 499 kts | 30° |
| 2026-05-06 19:29 | 58.39177 | 20.12709 | 36999 ft | 500 kts | 30° |
| 2026-05-06 19:30 | 58.45064 | 20.19640 | 37000 ft | 500 kts | 30° |
| 2026-05-06 19:30 | 58.50976 | 20.26656 | 37000 ft | 501 kts | 30° |
| 2026-05-06 19:31 | 58.56910 | 20.33684 | 37003 ft | 502 kts | 30° |
| 2026-05-06 19:31 | 58.65805 | 20.44339 | 37011 ft | 503 kts | 30° |
| 2026-05-06 19:32 | 58.71697 | 20.51405 | 37010 ft | 503 kts | 30° |
| 2026-05-06 19:32 | 58.77649 | 20.58528 | 37011 ft | 504 kts | 30° |
| 2026-05-06 19:33 | 58.83606 | 20.65729 | 37011 ft | 505 kts | 30° |
| 2026-05-06 19:33 | 58.89558 | 20.72956 | 37018 ft | 506 kts | 30° |
| 2026-05-06 19:34 | 58.95470 | 20.80176 | 37020 ft | 506 kts | 30° |
| 2026-05-06 19:34 | 59.01417 | 20.87464 | 36750 ft | 505 kts | 31° |
| 2026-05-06 19:35 | 59.04234 | 20.91502 | 36422 ft | 500 kts | 40° |
| 2026-05-06 19:35 | 59.06537 | 20.96453 | 36133 ft | 489 kts | 54° |
| 2026-05-06 19:35 | 59.08404 | 21.01915 | 35859 ft | 483 kts | 58° |
| 2026-05-06 19:35 | 59.10196 | 21.07454 | 35605 ft | 484 kts | 59° |
| 2026-05-06 19:36 | 59.11985 | 21.13017 | 35344 ft | 485 kts | 59° |
| 2026-05-06 19:36 | 59.13778 | 21.18571 | 35103 ft | 484 kts | 59° |
| 2026-05-06 19:36 | 59.15573 | 21.24104 | 34853 ft | 483 kts | 59° |
| 2026-05-06 19:36 | 59.17342 | 21.29559 | 34607 ft | 482 kts | 59° |
| 2026-05-06 19:37 | 59.19127 | 21.35073 | 34355 ft | 480 kts | 59° |
| 2026-05-06 19:37 | 59.20906 | 21.40577 | 34106 ft | 479 kts | 59° |
| 2026-05-06 19:37 | 59.22675 | 21.46063 | 33856 ft | 478 kts | 59° |
| 2026-05-06 19:37 | 59.23844 | 21.49701 | 33690 ft | 477 kts | 59° |
| 2026-05-06 19:38 | 59.26193 | 21.57038 | 33353 ft | 475 kts | 59° |
| 2026-05-06 19:38 | 59.27940 | 21.62503 | 33103 ft | 473 kts | 59° |
| 2026-05-06 19:38 | 59.29683 | 21.67967 | 32850 ft | 472 kts | 59° |
| 2026-05-06 19:38 | 59.31415 | 21.73423 | 32601 ft | 471 kts | 59° |
| 2026-05-06 19:39 | 59.33146 | 21.78870 | 32341 ft | 470 kts | 59° |
| 2026-05-06 19:39 | 59.34866 | 21.84301 | 32103 ft | 469 kts | 59° |
| 2026-05-06 19:39 | 59.36565 | 21.89663 | 31861 ft | 468 kts | 59° |
| 2026-05-06 19:39 | 59.38275 | 21.95073 | 31605 ft | 467 kts | 59° |
| 2026-05-06 19:40 | 59.39980 | 22.00489 | 31354 ft | 465 kts | 60° |
| 2026-05-06 19:40 | 59.41671 | 22.05886 | 31107 ft | 464 kts | 60° |
| 2026-05-06 19:40 | 59.43361 | 22.11290 | 30854 ft | 463 kts | 59° |
| 2026-05-06 19:40 | 59.45047 | 22.16679 | 30594 ft | 462 kts | 60° |
| 2026-05-06 19:41 | 59.46721 | 22.22043 | 30353 ft | 460 kts | 60° |
| 2026-05-06 19:41 | 59.48392 | 22.27408 | 30102 ft | 458 kts | 60° |
| 2026-05-06 19:41 | 59.50025 | 22.32675 | 29857 ft | 457 kts | 60° |
| 2026-05-06 19:41 | 59.51679 | 22.38015 | 29605 ft | 456 kts | 60° |
| 2026-05-06 19:42 | 59.53323 | 22.43340 | 29356 ft | 454 kts | 60° |
| 2026-05-06 19:42 | 59.54945 | 22.48641 | 29106 ft | 451 kts | 60° |
| 2026-05-06 19:42 | 59.56566 | 22.53938 | 28855 ft | 450 kts | 60° |
| 2026-05-06 19:42 | 59.58179 | 22.59205 | 28606 ft | 447 kts | 60° |
| 2026-05-06 19:43 | 59.59787 | 22.64451 | 28355 ft | 446 kts | 60° |
| 2026-05-06 19:43 | 59.61388 | 22.69675 | 28106 ft | 444 kts | 60° |
| 2026-05-06 19:43 | 59.62982 | 22.74895 | 27855 ft | 443 kts | 60° |
| 2026-05-06 19:43 | 59.64546 | 22.80037 | 27607 ft | 441 kts | 60° |
| 2026-05-06 19:44 | 59.66118 | 22.85228 | 27356 ft | 439 kts | 60° |
| 2026-05-06 19:44 | 59.67683 | 22.90409 | 27107 ft | 438 kts | 60° |
| 2026-05-06 19:44 | 59.69242 | 22.95581 | 26726 ft | 437 kts | 60° |
| 2026-05-06 19:44 | 59.70797 | 23.00733 | 26221 ft | 437 kts | 60° |
| 2026-05-06 19:45 | 59.72349 | 23.05900 | 25698 ft | 436 kts | 60° |
| 2026-05-06 19:45 | 59.73891 | 23.11057 | 25175 ft | 436 kts | 60° |
| 2026-05-06 19:45 | 59.75443 | 23.16232 | 24627 ft | 437 kts | 60° |
| 2026-05-06 19:45 | 59.76996 | 23.21428 | 24071 ft | 437 kts | 60° |
| 2026-05-06 19:46 | 59.78526 | 23.26550 | 23523 ft | 437 kts | 59° |
| 2026-05-06 19:46 | 59.80067 | 23.31736 | 22983 ft | 435 kts | 60° |
| 2026-05-06 19:46 | 59.81603 | 23.36906 | 22440 ft | 434 kts | 60° |
| 2026-05-06 19:46 | 59.83117 | 23.42032 | 21887 ft | 425 kts | 60° |
| 2026-05-06 19:47 | 59.84604 | 23.47061 | 21334 ft | 418 kts | 60° |
| 2026-05-06 19:47 | 59.86063 | 23.52018 | 20805 ft | 411 kts | 59° |
| 2026-05-06 19:47 | 59.87486 | 23.56868 | 20314 ft | 402 kts | 59° |
| 2026-05-06 19:47 | 59.88888 | 23.61636 | 19840 ft | 396 kts | 59° |
| 2026-05-06 19:48 | 59.90246 | 23.66278 | 19376 ft | 390 kts | 59° |
| 2026-05-06 19:48 | 59.91610 | 23.70945 | 18927 ft | 389 kts | 58° |
| 2026-05-06 19:48 | 59.92963 | 23.75565 | 18491 ft | 382 kts | 59° |
| 2026-05-06 19:48 | 59.94288 | 23.80113 | 18070 ft | 378 kts | 58° |
| 2026-05-06 19:49 | 59.95598 | 23.84632 | 17646 ft | 374 kts | 58° |
| 2026-05-06 19:49 | 59.96894 | 23.89111 | 17224 ft | 371 kts | 59° |
| 2026-05-06 19:49 | 59.98179 | 23.93559 | 16810 ft | 367 kts | 58° |
| 2026-05-06 19:49 | 59.99449 | 23.97945 | 16423 ft | 363 kts | 58° |
| 2026-05-06 19:50 | 60.00704 | 24.02277 | 16053 ft | 357 kts | 58° |
| 2026-05-06 19:50 | 60.01939 | 24.06553 | 15680 ft | 353 kts | 58° |
| 2026-05-06 19:50 | 60.03136 | 24.10724 | 15333 ft | 348 kts | 58° |
| 2026-05-06 19:50 | 60.04333 | 24.14896 | 14956 ft | 344 kts | 58° |
| 2026-05-06 19:51 | 60.05513 | 24.19017 | 14589 ft | 339 kts | 58° |
| 2026-05-06 19:51 | 60.06676 | 24.23087 | 14227 ft | 335 kts | 58° |
| 2026-05-06 19:51 | 60.07824 | 24.27111 | 13876 ft | 330 kts | 58° |
| 2026-05-06 19:51 | 60.08956 | 24.31088 | 13532 ft | 328 kts | 58° |
| 2026-05-06 19:52 | 60.10086 | 24.35063 | 13182 ft | 327 kts | 58° |
| 2026-05-06 19:52 | 60.11202 | 24.39016 | 12796 ft | 324 kts | 58° |
| 2026-05-06 19:52 | 60.12305 | 24.42942 | 12389 ft | 322 kts | 58° |
| 2026-05-06 19:52 | 60.13406 | 24.46850 | 11976 ft | 321 kts | 58° |
| 2026-05-06 19:53 | 60.14502 | 24.50734 | 11569 ft | 319 kts | 58° |
| 2026-05-06 19:53 | 60.15575 | 24.54534 | 11172 ft | 316 kts | 58° |
| 2026-05-06 19:53 | 60.16653 | 24.58364 | 10759 ft | 313 kts | 59° |
| 2026-05-06 19:53 | 60.17717 | 24.62150 | 10348 ft | 310 kts | 59° |
| 2026-05-06 19:54 | 60.18770 | 24.65914 | 9929 ft | 307 kts | 59° |
| 2026-05-06 19:54 | 60.19809 | 24.69638 | 9511 ft | 304 kts | 60° |
| 2026-05-06 19:54 | 60.20838 | 24.73326 | 9082 ft | 301 kts | 60° |
| 2026-05-06 19:54 | 60.21854 | 24.76950 | 8708 ft | 293 kts | 60° |
| 2026-05-06 19:55 | 60.22839 | 24.80476 | 8395 ft | 285 kts | 60° |
| 2026-05-06 19:55 | 60.23796 | 24.83905 | 8093 ft | 278 kts | 60° |
| 2026-05-06 19:55 | 60.24724 | 24.87239 | 7803 ft | 276 kts | 60° |
| 2026-05-06 19:55 | 60.25659 | 24.90600 | 7514 ft | 275 kts | 60° |
| 2026-05-06 19:56 | 60.26584 | 24.93937 | 7274 ft | 274 kts | 60° |
| 2026-05-06 19:56 | 60.27509 | 24.97284 | 7020 ft | 273 kts | 60° |
| 2026-05-06 19:56 | 60.28430 | 25.00624 | 6708 ft | 272 kts | 60° |
| 2026-05-06 19:56 | 60.29034 | 25.02814 | 6487 ft | 270 kts | 60° |
| 2026-05-06 19:57 | 60.30236 | 25.07178 | 6006 ft | 260 kts | 60° |
| 2026-05-06 19:57 | 60.30808 | 25.09258 | 5763 ft | 253 kts | 60° |
| 2026-05-06 19:57 | 60.31651 | 25.12325 | 5416 ft | 246 kts | 60° |
| 2026-05-06 19:57 | 60.32725 | 25.16248 | 4975 ft | 236 kts | 60° |
| 2026-05-06 19:58 | 60.33517 | 25.19136 | 4656 ft | 235 kts | 60° |
| 2026-05-06 19:58 | 60.34307 | 25.22025 | 4419 ft | 235 kts | 60° |
| 2026-05-06 19:58 | 60.35095 | 25.24912 | 4212 ft | 235 kts | 60° |
| 2026-05-06 19:58 | 60.35629 | 25.26867 | 4082 ft | 235 kts | 60° |
| 2026-05-06 19:59 | 60.36407 | 25.29716 | 3897 ft | 234 kts | 60° |
| 2026-05-06 19:59 | 60.37342 | 25.32397 | 3722 ft | 234 kts | 48° |
| 2026-05-06 19:59 | 60.38470 | 25.34750 | 3530 ft | 233 kts | 37° |
| 2026-05-06 19:59 | 60.39907 | 25.36099 | 3336 ft | 226 kts | 7° |
| 2026-05-06 20:00 | 60.41408 | 25.35810 | 3134 ft | 212 kts | 336° |
| 2026-05-06 20:00 | 60.42601 | 25.34241 | 2937 ft | 199 kts | 315° |
| 2026-05-06 20:00 | 60.43541 | 25.32347 | 2855 ft | 183 kts | 313° |
| 2026-05-06 20:00 | 60.44431 | 25.30604 | 2684 ft | 174 kts | 315° |
| 2026-05-06 20:01 | 60.45292 | 25.28958 | 2483 ft | 166 kts | 311° |
| 2026-05-06 20:01 | 60.45768 | 25.26973 | 2247 ft | 155 kts | 269° |
| 2026-05-06 20:01 | 60.45399 | 25.25141 | 2188 ft | 138 kts | 234° |
| 2026-05-06 20:01 | 60.44758 | 25.23720 | 2197 ft | 136 kts | 227° |
| 2026-05-06 20:02 | 60.44116 | 25.22322 | 2202 ft | 136 kts | 229° |
| 2026-05-06 20:02 | 60.43476 | 25.20913 | 2203 ft | 136 kts | 229° |
| 2026-05-06 20:02 | 60.42839 | 25.19502 | 2201 ft | 137 kts | 229° |
| 2026-05-06 20:02 | 60.42193 | 25.18072 | 2200 ft | 138 kts | 226° |
| 2026-05-06 20:03 | 60.41546 | 25.16639 | 2202 ft | 138 kts | 226° |
| 2026-05-06 20:03 | 60.40898 | 25.15203 | 2203 ft | 138 kts | 226° |
| 2026-05-06 20:03 | 60.40251 | 25.13772 | 2190 ft | 138 kts | 226° |
| 2026-05-06 20:03 | 60.39604 | 25.12339 | 2065 ft | 138 kts | 226° |
| 2026-05-06 20:04 | 60.38956 | 25.10904 | 1890 ft | 138 kts | 226° |
| 2026-05-06 20:04 | 60.38313 | 25.09482 | 1712 ft | 139 kts | 226° |
| 2026-05-06 20:04 | 60.37660 | 25.08038 | 1519 ft | 139 kts | 226° |
| 2026-05-06 20:04 | 60.37009 | 25.06598 | 1339 ft | 139 kts | 227° |
| 2026-05-06 20:05 | 60.36362 | 25.05168 | 1151 ft | 138 kts | 228° |
| 2026-05-06 20:05 | 60.35715 | 25.03740 | 966 ft | 138 kts | 227° |
| 2026-05-06 20:05 | 60.35067 | 25.02323 | 758 ft | 137 kts | 227° |
| 2026-05-06 20:05 | 60.34425 | 25.00909 | 581 ft | 136 kts | 228° |
| 2026-05-06 20:06 | 60.33800 | 24.99517 | 393 ft | 136 kts | 228° |
| 2026-05-06 20:06 | 60.33162 | 24.98111 | 243 ft | 135 kts | 228° |
| 2026-05-06 20:06 | 60.32733 | 24.97176 | 180 ft | 133 kts | 227° |
| 2026-05-06 20:06 | 60.32184 | 24.95964 | 182 ft | 91 kts | 229° |
| 2026-05-06 20:07 | 60.31949 | 24.95451 | 178 ft | 23 kts | 218° |
| 2026-05-06 20:07 | 60.31811 | 24.95274 | 179 ft | 20 kts | 201° |
| 2026-05-06 20:07 | 60.31703 | 24.95209 | 177 ft | 14 kts | 195° |
| 2026-05-06 20:07 | 60.31628 | 24.95235 | 176 ft | 12 kts | 130° |
| 2026-05-06 20:08 | 60.31665 | 24.95391 | 175 ft | 15 kts | 42° |
| 2026-05-06 20:08 | 60.31700 | 24.95523 | 174 ft | 12 kts | 107° |
| 2026-05-06 20:08 | 60.31637 | 24.95660 | 172 ft | 15 kts | 144° |
| 2026-05-06 20:08 | 60.31574 | 24.95628 | 172 ft | 8 kts | 199° |
| 2026-05-06 20:09 | 60.31537 | 24.95663 | 172 ft | 6 kts | 133° |
| 2026-05-06 20:09 | 60.31521 | 24.95696 | 172 ft | 3 kts | 139° |
| 2026-05-06 20:09 | 60.31507 | 24.95721 | 172 ft | 1 kts | 138° |
| 2026-05-06 20:09 | 60.31505 | 24.95726 | 172 ft | 0 kts | 138° |